Time;durP1;ratioP1;P1;durP2;ratioP2;P2;SDS_P1;SDS_P2;PMS_P1;PMS_P2;Temp;Humidity;BMP_temperature;BMP_pressure;BME280_temperature;BME280_humidity;BME280_pressure;Samples;Min_cycle;Max_cycle;Signal;HPM_P1;HPM_P2
2022/11/08 06:06:20;;;;;;;5.07;2.88;;;;;;;10.97;100.00;100503.81;5034465;28;20088;-76
2022/11/08 06:08:46;;;;;;;7.32;2.53;;;;;;;11.02;100.00;100494.25;5036327;28;20049;-76
2022/11/08 06:11:14;;;;;;;9.98;3.63;;;;;;;10.96;100.00;100497.41;5032483;28;20028;-77
2022/11/08 06:13:39;;;;;;;6.15;2.75;;;;;;;10.87;100.00;100496.16;5038624;22;20062;-77
2022/11/08 06:16:08;;;;;;;4.50;2.50;;;;;;;10.91;100.00;100482.97;4985883;28;20128;-76
2022/11/08 06:18:35;;;;;;;7.68;3.03;;;;;;;10.90;100.00;100498.16;4996184;28;20037;-76
2022/11/08 06:21:05;;;;;;;5.50;2.80;;;;;;;10.90;100.00;100498.16;4995830;28;20030;-76
2022/11/08 06:23:31;;;;;;;9.73;3.30;;;;;;;10.67;100.00;100490.00;4973138;28;20037;-76
2022/11/08 06:25:58;;;;;;;7.97;3.33;;;;;;;10.76;100.00;100480.06;4987610;28;20072;-76
2022/11/08 06:28:23;;;;;;;6.63;3.95;;;;;;;10.88;100.00;100490.16;4999656;28;20087;-76
2022/11/08 06:30:49;;;;;;;10.18;3.25;;;;;;;10.89;100.00;100490.97;4985482;28;20030;-76
2022/11/08 06:33:15;;;;;;;5.32;3.13;;;;;;;10.84;100.00;100488.53;4994788;28;20541;-76
2022/11/08 06:35:40;;;;;;;9.57;3.70;;;;;;;10.86;100.00;100491.75;4995929;28;20022;-76
2022/11/08 06:38:06;;;;;;;6.63;2.75;;;;;;;10.74;100.00;100496.44;4995163;28;20552;-76
2022/11/08 06:40:32;;;;;;;5.15;2.70;;;;;;;10.84;100.00;100500.53;4995715;28;20092;-76
2022/11/08 06:42:58;;;;;;;9.77;3.03;;;;;;;10.81;100.00;100501.28;4999470;28;20736;-76
2022/11/08 06:45:24;;;;;;;7.40;3.90;;;;;;;10.89;100.00;100496.56;4986448;28;20044;-76
2022/11/08 06:47:56;;;;;;;8.57;2.72;;;;;;;10.77;100.00;100503.25;5013809;28;20455;-76
2022/11/08 06:50:21;;;;;;;8.50;3.03;;;;;;;10.68;100.00;100503.59;5007020;28;20045;-76
2022/11/08 06:52:46;;;;;;;6.93;2.85;;;;;;;10.74;100.00;100502.06;4979643;28;20473;-76
2022/11/08 06:55:12;;;;;;;5.80;2.72;;;;;;;10.74;100.00;100493.66;5009569;28;20036;-76
2022/11/08 06:57:37;;;;;;;6.38;2.78;;;;;;;10.89;100.00;100499.38;4994597;28;20719;-77
2022/11/08 07:00:03;;;;;;;5.35;2.88;;;;;;;10.83;100.00;100509.31;4994276;28;20544;-76
2022/11/08 07:02:29;;;;;;;8.75;3.08;;;;;;;10.83;100.00;100521.31;4996465;28;20025;-76
2022/11/08 07:04:54;;;;;;;6.00;2.63;;;;;;;10.85;100.00;100507.72;4984715;28;20534;-75
2022/11/08 07:07:19;;;;;;;8.50;2.78;;;;;;;10.77;100.00;100500.47;4980184;28;22321;-76
2022/11/08 07:09:45;;;;;;;7.35;2.80;;;;;;;10.84;100.00;100502.53;4965270;28;20057;-76
2022/11/08 07:12:10;;;;;;;4.85;2.65;;;;;;;10.78;100.00;100502.88;4984991;28;20872;-76
2022/11/08 07:14:36;;;;;;;6.43;2.80;;;;;;;10.94;100.00;100497.00;4999518;28;21327;-76
2022/11/08 07:17:01;;;;;;;7.90;3.92;;;;;;;11.14;100.00;100488.31;4996243;28;20025;-76
2022/11/08 07:19:26;;;;;;;13.40;3.95;;;;;;;11.07;100.00;100497.50;5005100;28;20068;-76
2022/11/08 07:21:52;;;;;;;5.60;3.05;;;;;;;10.90;100.00;100493.38;5002885;28;20112;-76
2022/11/08 07:24:17;;;;;;;7.70;3.38;;;;;;;10.83;100.00;100490.50;4987350;28;20026;-76
2022/11/08 07:26:42;;;;;;;7.78;3.42;;;;;;;10.83;100.00;100484.91;4991772;28;20112;-76
2022/11/08 07:29:07;;;;;;;9.25;3.58;;;;;;;10.80;100.00;100487.72;5003272;28;20145;-77
2022/11/08 07:31:33;;;;;;;9.85;3.50;;;;;;;10.82;100.00;100482.53;4989177;28;20368;-75
2022/11/08 07:33:58;;;;;;;8.82;3.55;;;;;;;10.76;100.00;100479.28;5004719;28;20037;-76
2022/11/08 07:36:23;;;;;;;9.80;3.45;;;;;;;10.88;100.00;100472.53;4983240;28;20496;-75
2022/11/08 07:38:50;;;;;;;8.93;3.42;;;;;;;10.89;100.00;100476.97;5004286;28;20034;-76
2022/11/08 07:41:16;;;;;;;10.30;3.65;;;;;;;11.02;100.00;100475.44;4986512;28;20523;-76
2022/11/08 07:43:41;;;;;;;8.10;3.22;;;;;;;10.93;100.00;100472.19;5004846;28;20030;-76
2022/11/08 07:46:06;;;;;;;8.43;3.83;;;;;;;10.94;100.00;100465.38;5002569;28;20018;-75
2022/11/08 07:48:32;;;;;;;6.95;3.40;;;;;;;10.99;100.00;100470.63;4998819;28;20061;-76
2022/11/08 07:50:57;;;;;;;11.20;3.50;;;;;;;11.03;100.00;100470.66;5021275;28;20026;-76
2022/11/08 07:53:23;;;;;;;6.80;4.43;;;;;;;10.98;100.00;100471.81;5004529;28;20040;-76
2022/11/08 07:55:48;;;;;;;7.50;3.40;;;;;;;11.05;100.00;100460.66;5006745;28;20031;-76
2022/11/08 07:58:14;;;;;;;6.97;3.55;;;;;;;11.10;100.00;100479.88;5000208;28;20045;-76
2022/11/08 08:00:42;;;;;;;10.20;3.65;;;;;;;11.15;99.95;100468.31;5006242;28;20041;-76
2022/11/08 08:03:10;;;;;;;7.00;3.50;;;;;;;11.18;100.00;100467.53;5005238;28;20396;-78
2022/11/08 08:05:43;;;;;;;6.50;3.40;;;;;;;11.21;99.71;100456.75;5011680;28;20422;-76
2022/11/08 08:08:11;;;;;;;7.93;3.20;;;;;;;11.25;99.69;100463.97;5001142;28;20037;-76
2022/11/08 08:10:37;;;;;;;8.48;3.80;;;;;;;11.26;99.61;100453.53;5014008;28;20033;-76
2022/11/08 08:13:05;;;;;;;9.93;3.90;;;;;;;11.26;99.94;100445.97;5005752;28;20492;-76
2022/11/08 08:15:30;;;;;;;7.05;3.55;;;;;;;11.28;98.95;100449.19;5000449;28;20120;-76
2022/11/08 08:17:58;;;;;;;11.00;4.15;;;;;;;11.36;98.66;100452.78;4991468;28;20126;-76
2022/11/08 08:20:24;;;;;;;4.90;3.53;;;;;;;11.39;98.69;100444.41;5008849;28;20025;-75
2022/11/08 08:22:50;;;;;;;3.47;2.47;;;;;;;11.36;98.86;100439.63;5006375;28;20045;-76
2022/11/08 08:25:17;;;;;;;7.10;3.03;;;;;;;11.39;98.33;100435.22;5014910;28;20178;-76
2022/11/08 08:28:00;;;;;;;6.32;3.20;;;;;;;11.45;98.59;100425.22;4989893;28;20061;-76
2022/11/08 08:30:26;;;;;;;12.52;3.80;;;;;;;11.52;96.84;100436.44;5011717;28;20052;-75
2022/11/08 08:33:00;;;;;;;8.95;3.70;;;;;;;11.58;96.33;100440.47;5024045;28;20431;-76
2022/11/08 08:35:25;;;;;;;8.43;3.53;;;;;;;11.63;95.82;100446.91;5009718;28;20117;-76
2022/11/08 08:37:51;;;;;;;3.97;2.72;;;;;;;11.66;95.12;100448.91;4988461;28;20105;-76
2022/11/08 08:40:16;;;;;;;7.18;3.00;;;;;;;11.68;94.43;100446.50;4998957;28;20029;-76
2022/11/08 08:42:41;;;;;;;10.18;3.75;;;;;;;11.78;94.30;100440.94;4999722;28;20416;-76
2022/11/08 08:45:07;;;;;;;5.20;3.53;;;;;;;11.82;94.58;100440.94;5019383;28;20084;-77
2022/11/08 08:47:32;;;;;;;8.35;2.88;;;;;;;11.90;94.19;100447.41;5017099;28;20060;-76
2022/11/08 08:49:58;;;;;;;6.43;2.90;;;;;;;11.96;93.49;100437.41;5034723;28;20040;-75
2022/11/08 08:52:23;;;;;;;7.13;3.65;;;;;;;11.97;92.97;100439.00;4995316;28;20295;-76
2022/11/08 08:54:49;;;;;;;4.43;2.75;;;;;;;12.02;93.16;100433.00;5020357;28;20549;-76
2022/11/08 08:57:14;;;;;;;9.90;2.78;;;;;;;11.99;93.55;100448.63;5015697;28;20095;-76
2022/11/08 08:59:39;;;;;;;11.40;3.85;;;;;;;12.03;91.82;100445.03;5008211;28;20029;-76
2022/11/08 09:02:05;;;;;;;4.85;2.88;;;;;;;12.03;92.71;100456.25;5011506;28;20393;-76
2022/11/08 09:04:30;;;;;;;6.47;3.08;;;;;;;12.03;92.77;100437.41;4989995;28;20401;-76
2022/11/08 09:06:55;;;;;;;4.00;2.53;;;;;;;12.02;93.98;100433.00;5009939;28;20803;-76
2022/11/08 09:09:21;;;;;;;5.85;2.83;;;;;;;11.99;92.55;100426.19;5004265;28;20393;-76
2022/11/08 09:11:47;;;;;;;8.00;3.60;;;;;;;12.11;91.17;100435.41;5015278;28;20203;-76
2022/11/08 09:14:13;;;;;;;7.07;2.90;;;;;;;12.11;91.36;100429.81;5007916;28;20021;-76
2022/11/08 09:16:38;;;;;;;4.07;2.53;;;;;;;12.08;91.95;100433.38;4991782;28;20515;-76
2022/11/08 09:19:03;;;;;;;5.20;2.80;;;;;;;12.12;91.78;100431.41;5006872;28;20033;-76
2022/11/08 09:21:29;;;;;;;6.70;3.05;;;;;;;12.11;91.94;100429.81;4971335;28;20030;-75
2022/11/08 09:23:55;;;;;;;7.93;2.97;;;;;;;12.15;91.50;100441.84;4988184;28;20334;-76
2022/11/08 09:26:20;;;;;;;4.35;3.45;;;;;;;12.18;91.65;100429.78;4988362;28;20030;-76
2022/11/08 09:28:45;;;;;;;4.97;2.53;;;;;;;12.16;91.75;100443.41;4987041;28;20390;-76
2022/11/08 09:31:11;;;;;;;6.05;3.17;;;;;;;12.20;90.20;100427.41;4979185;28;20026;-76
2022/11/08 09:33:38;;;;;;;9.43;3.05;;;;;;;12.13;92.08;100435.81;4993105;28;20036;-76
2022/11/08 09:36:05;;;;;;;2.55;2.35;;;;;;;12.16;92.27;100432.19;4980572;28;20083;-76
2022/11/08 09:38:31;;;;;;;7.15;3.10;;;;;;;12.18;92.22;100438.22;4998217;28;20482;-76
2022/11/08 09:41:14;;;;;;;6.68;2.97;;;;;;;12.23;91.08;100426.59;5002535;28;20033;-75
2022/11/08 09:44:04;;;;;;;4.43;2.90;;;;;;;12.21;91.17;100426.22;4988745;28;20481;-76
2022/11/08 09:46:38;;;;;;;8.10;2.53;;;;;;;12.29;90.70;100418.56;4989824;28;20038;-75
2022/11/08 09:49:09;;;;;;;4.05;2.42;;;;;;;12.35;90.66;100412.19;5009475;28;20032;-76
2022/11/08 09:51:35;;;;;;;5.55;2.78;;;;;;;12.39;89.77;100417.78;4991574;28;20038;-76
2022/11/08 09:54:02;;;;;;;5.78;3.28;;;;;;;12.39;89.24;100415.75;4993089;28;20025;-76
2022/11/08 09:56:34;;;;;;;4.70;3.13;;;;;;;12.49;87.73;100421.78;4994525;28;20037;-75
2022/11/08 09:59:08;;;;;;;4.30;2.20;;;;;;;12.49;88.13;100430.22;4998260;28;20061;-76
2022/11/08 10:01:35;;;;;;;4.88;2.40;;;;;;;12.49;88.62;100419.78;4994819;28;20443;-76
2022/11/08 10:04:17;;;;;;;5.30;2.28;;;;;;;12.57;87.47;100418.56;4992663;28;20081;-76
2022/11/08 10:07:01;;;;;;;5.05;2.47;;;;;;;12.56;87.97;100419.75;4985190;28;20077;-76
2022/11/08 10:09:46;;;;;;;7.32;2.78;;;;;;;12.55;87.44;100409.75;5008215;28;20618;-76
2022/11/08 10:12:27;;;;;;;4.40;2.58;;;;;;;12.59;87.52;100415.38;4993924;28;20497;-76
2022/11/08 10:15:40;;;;;;;4.53;2.50;;;;;;;12.50;88.12;100417.75;5000860;28;20088;-76
2022/11/08 10:18:39;;;;;;;8.10;2.95;;;;;;;12.55;87.97;100409.75;4962848;28;20069;-76
2022/11/08 10:21:21;;;;;;;5.55;2.42;;;;;;;12.54;88.29;100410.97;4979260;28;20084;-76
2022/11/08 10:24:01;;;;;;;3.60;2.40;;;;;;;12.59;86.31;100406.94;4989615;28;20038;-76
2022/11/08 10:26:36;;;;;;;5.43;3.47;;;;;;;12.53;87.39;100414.16;5004036;28;20125;-76
2022/11/08 10:29:20;;;;;;;3.28;2.85;;;;;;;12.59;87.92;100421.78;4997759;28;20025;-76
2022/11/08 10:31:47;;;;;;;5.15;2.08;;;;;;;12.65;87.27;100418.53;4973189;28;20061;-76
2022/11/08 10:34:18;;;;;;;10.48;2.63;;;;;;;12.70;85.32;100415.34;4997926;28;20022;-76
2022/11/08 10:36:49;;;;;;;6.43;2.83;;;;;;;12.71;86.58;100406.53;4994848;28;20488;-76
2022/11/08 10:39:22;;;;;;;5.05;2.25;;;;;;;12.75;85.75;100404.47;4987298;28;20042;-76
2022/11/08 10:42:14;;;;;;;5.07;2.50;;;;;;;12.77;85.56;100409.69;4996934;28;20067;-76
2022/11/08 10:44:40;;;;;;;2.33;1.80;;;;;;;12.77;86.21;100421.72;4979947;28;20057;-76
2022/11/08 10:47:23;;;;;;;6.18;2.30;;;;;;;12.75;86.33;100426.94;4987128;28;20042;-75
2022/11/08 10:49:48;;;;;;;6.20;2.13;;;;;;;12.80;84.93;100420.94;5000675;28;20033;-76
2022/11/08 10:52:39;;;;;;;4.80;2.50;;;;;;;12.90;87.89;100407.25;4986709;28;20030;-76
2022/11/08 10:55:06;;;;;;;7.93;2.22;;;;;;;12.97;86.39;100396.03;5000307;28;20041;-76
2022/11/08 10:57:37;;;;;;;3.67;2.25;;;;;;;12.99;85.15;100405.63;4998460;28;20420;-76
2022/11/08 11:00:19;;;;;;;5.88;2.47;;;;;;;13.04;84.14;100406.44;4992921;28;20030;-75
2022/11/08 11:02:51;;;;;;;4.15;2.08;;;;;;;13.14;84.97;100406.38;4999338;28;20026;-76
2022/11/08 11:05:17;;;;;;;3.65;2.25;;;;;;;13.08;84.25;100405.22;4967670;28;20175;-76
2022/11/08 11:08:03;;;;;;;3.05;2.28;;;;;;;13.09;85.57;100404.00;4995234;28;20492;-76
2022/11/08 11:10:34;;;;;;;12.20;3.03;;;;;;;13.17;83.36;100404.78;4984389;28;20080;-76
2022/11/08 11:13:05;;;;;;;6.20;2.40;;;;;;;13.12;84.01;100414.44;4995507;28;20399;-76
2022/11/08 11:15:36;;;;;;;3.08;2.60;;;;;;;13.16;85.50;100398.34;5001839;28;20037;-76
2022/11/08 11:18:03;;;;;;;9.15;2.30;;;;;;;13.16;85.15;100401.16;4972193;28;20110;-76
2022/11/08 11:20:30;;;;;;;8.52;3.05;;;;;;;13.22;84.41;100405.16;5009960;28;20417;-76
2022/11/08 11:22:57;;;;;;;8.25;2.35;;;;;;;13.27;84.66;100401.13;5001960;28;20453;-76
2022/11/08 11:25:23;;;;;;;4.13;2.20;;;;;;;13.30;84.87;100393.91;5003682;28;20037;-77
2022/11/08 11:27:53;;;;;;;4.90;2.30;;;;;;;13.28;84.46;100383.06;4997455;28;20451;-77
2022/11/08 11:30:22;;;;;;;7.03;2.03;;;;;;;13.39;84.65;100389.44;5024791;28;20041;-78
2022/11/08 11:32:59;;;;;;;3.05;2.03;;;;;;;13.42;84.77;100382.22;5000369;28;20465;-76
2022/11/08 11:35:32;;;;;;;9.98;2.88;;;;;;;13.50;83.94;100374.53;5006198;28;20040;-76
2022/11/08 11:37:59;;;;;;;4.85;2.28;;;;;;;13.48;84.43;100380.56;5004659;28;20040;-76
2022/11/08 11:40:42;;;;;;;3.80;2.53;;;;;;;13.52;82.90;100381.34;5005619;28;20593;-75
2022/11/08 11:43:28;;;;;;;3.70;2.10;;;;;;;13.55;83.28;100377.69;4989158;28;20033;-76
2022/11/08 11:46:38;;;;;;;4.28;2.38;;;;;;;13.59;82.87;100374.88;5014611;28;20032;-76
2022/11/08 11:49:12;;;;;;;4.72;2.47;;;;;;;13.61;82.97;100373.25;4921437;29;20062;-76
2022/11/08 11:51:37;;;;;;;8.02;3.10;;;;;;;13.68;82.64;100372.44;4904949;29;20046;-76
2022/11/08 11:54:05;;;;;;;4.30;1.98;;;;;;;13.77;82.09;100364.31;4977563;28;20042;-77
2022/11/08 11:56:55;;;;;;;3.92;1.63;;;;;;;13.93;81.52;100358.16;5006834;28;20029;-76
2022/11/08 11:59:55;;;;;;;2.67;1.55;;;;;;;13.89;82.16;100370.66;4998479;28;20033;-77
2022/11/08 12:02:57;;;;;;;3.10;1.55;;;;;;;13.81;82.28;100359.47;5001800;28;20033;-76
2022/11/08 12:05:47;;;;;;;2.63;1.95;;;;;;;13.80;82.66;100354.25;5012961;28;20046;-76
2022/11/08 12:08:18;;;;;;;5.72;2.35;;;;;;;13.69;81.47;100359.94;5001743;28;20042;-76
2022/11/08 12:11:15;;;;;;;5.70;2.30;;;;;;;13.73;81.71;100357.91;5002009;28;20085;-76
2022/11/08 12:13:59;;;;;;;3.70;2.33;;;;;;;13.66;83.13;100357.16;5005099;28;20049;-76
2022/11/08 12:16:30;;;;;;;6.28;2.03;;;;;;;13.65;82.46;100361.19;5025108;28;20040;-76
2022/11/08 12:19:07;;;;;;;4.55;1.88;;;;;;;13.62;82.93;100371.25;5019845;28;20531;-76
2022/11/08 12:22:09;;;;;;;7.93;2.55;;;;;;;13.50;83.83;100366.91;5018272;28;20061;-76
2022/11/08 12:25:22;;;;;;;8.45;2.33;;;;;;;13.58;82.67;100362.03;4996033;28;20050;-76
2022/11/08 12:28:12;;;;;;;6.18;2.38;;;;;;;13.59;83.23;100367.25;4947223;28;20073;-76
2022/11/08 12:31:08;;;;;;;5.43;2.47;;;;;;;13.58;83.78;100357.22;4939847;28;20488;-78
2022/11/08 12:33:52;;;;;;;2.42;1.55;;;;;;;13.63;83.25;100353.94;4997790;28;20038;-77
2022/11/08 12:36:36;;;;;;;3.15;2.03;;;;;;;13.68;82.93;100366.81;5015155;28;20037;-76
2022/11/08 12:39:40;;;;;;;4.57;2.20;;;;;;;13.79;83.38;100361.09;4991461;28;20053;-76
2022/11/08 12:42:13;;;;;;;7.70;2.55;;;;;;;13.75;83.60;100365.94;4992576;28;20135;-76
2022/11/08 12:44:56;;;;;;;9.48;1.98;;;;;;;13.80;82.78;100355.03;5004298;28;20030;-76
2022/11/08 12:47:43;;;;;;;4.07;2.50;;;;;;;13.85;82.80;100348.19;5002410;28;20499;-76
2022/11/08 12:50:17;;;;;;;7.53;2.33;;;;;;;13.91;82.10;100352.16;5005842;28;20053;-76
2022/11/08 12:52:54;;;;;;;7.30;2.13;;;;;;;13.93;83.04;100358.16;5007845;28;20109;-76
2022/11/08 12:55:28;;;;;;;6.72;3.33;;;;;;;14.01;82.44;100351.25;4997206;28;20448;-76
2022/11/08 12:57:57;;;;;;;6.65;1.90;;;;;;;14.12;81.75;100356.00;5005624;28;20029;-76
2022/11/08 13:00:22;;;;;;;4.72;2.22;;;;;;;14.12;81.40;100347.56;5011344;28;20302;-76
2022/11/08 13:03:10;;;;;;;4.65;2.10;;;;;;;14.10;81.63;100347.19;4993910;28;20029;-76
2022/11/08 13:05:44;;;;;;;4.55;2.28;;;;;;;14.00;82.99;100351.69;4996824;28;20029;-76
2022/11/08 13:08:18;;;;;;;4.70;2.10;;;;;;;14.10;80.80;100358.44;4992539;28;20057;-76
2022/11/08 13:11:08;;;;;;;4.13;1.83;;;;;;;13.99;83.01;100364.16;4990238;28;20228;-76
2022/11/08 13:13:54;;;;;;;6.32;2.70;;;;;;;14.10;81.05;100352.81;4989960;28;20117;-76
2022/11/08 13:16:23;;;;;;;6.20;2.58;;;;;;;14.14;80.50;100354.38;5004694;28;20046;-76
2022/11/08 13:18:58;;;;;;;4.03;1.75;;;;;;;14.08;80.99;100356.03;4979227;28;20073;-76
2022/11/08 13:21:26;;;;;;;5.75;2.38;;;;;;;14.07;82.19;100350.84;4975717;28;20030;-76
2022/11/08 13:24:01;;;;;;;4.85;2.55;;;;;;;14.08;83.39;100366.50;4976960;28;20169;-76
2022/11/08 13:26:31;;;;;;;3.72;2.08;;;;;;;14.05;82.32;100359.69;4977991;28;20039;-77
2022/11/08 13:29:15;;;;;;;6.00;2.05;;;;;;;14.06;82.19;100358.47;4972639;28;20042;-77
2022/11/08 13:31:53;;;;;;;4.28;2.00;;;;;;;14.12;82.32;100364.44;4977514;28;20035;-77
2022/11/08 13:34:23;;;;;;;6.38;2.22;;;;;;;14.13;82.01;100360.44;4975900;28;20035;-77
2022/11/08 13:37:11;;;;;;;6.40;2.17;;;;;;;14.12;82.59;100361.63;4979196;28;20022;-77
2022/11/08 13:40:08;;;;;;;7.82;2.38;;;;;;;14.08;82.96;100361.66;4972125;28;20054;-77
2022/11/08 13:42:34;;;;;;;4.65;2.28;;;;;;;14.01;84.15;100353.28;4972582;28;20569;-77
2022/11/08 13:45:10;;;;;;;5.90;2.60;;;;;;;14.00;83.52;100349.69;4961518;28;20031;-76
2022/11/08 13:47:35;;;;;;;8.48;2.72;;;;;;;14.03;84.25;100353.66;4982420;28;20054;-76
2022/11/08 13:50:32;;;;;;;5.25;3.28;;;;;;;14.00;83.52;100360.16;4979635;28;20062;-76
2022/11/08 13:53:23;;;;;;;5.55;2.38;;;;;;;14.04;83.34;100363.72;4977904;28;20065;-77
2022/11/08 13:56:05;;;;;;;6.97;2.00;;;;;;;14.02;83.62;100369.75;4962323;28;20034;-76
2022/11/08 13:58:36;;;;;;;6.80;2.70;;;;;;;14.01;84.31;100365.34;4967956;28;20104;-76
2022/11/08 14:01:22;;;;;;;4.63;2.40;;;;;;;13.93;84.79;100363.78;4967108;28;20089;-77
2022/11/08 14:03:50;;;;;;;6.10;1.90;;;;;;;13.96;84.09;100360.16;4934062;28;20133;-77
2022/11/08 14:06:23;;;;;;;3.85;2.15;;;;;;;13.99;84.12;100364.16;4969982;28;20397;-76
2022/11/08 14:09:19;;;;;;;4.50;2.10;;;;;;;13.94;83.77;100362.59;4975270;28;20023;-77
2022/11/08 14:12:22;;;;;;;3.53;1.90;;;;;;;13.98;84.10;100363.38;4976498;28;20066;-76
2022/11/08 14:15:14;;;;;;;6.55;2.20;;;;;;;13.97;83.43;100358.94;5001219;28;20542;-76
2022/11/08 14:17:46;;;;;;;3.28;1.90;;;;;;;14.01;83.86;100351.25;4997927;28;20038;-77
2022/11/08 14:20:21;;;;;;;6.93;2.20;;;;;;;14.08;83.39;100352.41;4997744;28;20030;-76
2022/11/08 14:22:47;;;;;;;5.10;1.90;;;;;;;13.96;84.38;100360.16;4998059;28;20041;-77
2022/11/08 14:25:34;;;;;;;5.90;2.70;;;;;;;13.86;84.73;100355.41;4999014;28;20080;-77
2022/11/08 14:27:59;;;;;;;6.15;2.53;;;;;;;13.95;83.74;100352.91;4991531;28;20057;-77
2022/11/08 14:30:25;;;;;;;6.28;2.38;;;;;;;13.91;84.67;100351.34;4994841;28;20082;-77
2022/11/08 14:33:12;;;;;;;6.20;2.88;;;;;;;13.94;82.88;100356.16;4996861;28;20063;-77
2022/11/08 14:35:39;;;;;;;12.43;3.03;;;;;;;13.88;83.64;100352.19;4981639;28;20025;-77
2022/11/08 14:38:14;;;;;;;4.22;2.08;;;;;;;13.88;83.50;100350.19;4986302;28;20053;-77
2022/11/08 14:40:46;;;;;;;7.32;2.42;;;;;;;13.88;83.71;100347.38;4995567;28;20037;-77
2022/11/08 14:43:12;;;;;;;3.78;1.92;;;;;;;13.88;83.32;100347.38;5000400;28;20492;-77
2022/11/08 14:45:41;;;;;;;7.38;2.20;;;;;;;13.83;83.63;100342.97;4998284;28;20026;-77
2022/11/08 14:48:20;;;;;;;6.63;2.20;;;;;;;13.86;82.79;100349.78;4998232;28;20033;-77
2022/11/08 14:50:45;;;;;;;12.70;2.80;;;;;;;14.01;86.93;100350.47;4997047;28;20567;-77
2022/11/08 14:53:25;;;;;;;10.13;2.65;;;;;;;13.90;83.28;100339.31;5004260;28;20022;-77
2022/11/08 14:56:20;;;;;;;3.47;2.33;;;;;;;13.72;84.75;100344.25;5002672;28;20825;-77
2022/11/08 14:58:47;;;;;;;3.33;2.40;;;;;;;13.74;83.82;100342.63;4992652;28;20120;-77
2022/11/08 15:01:15;;;;;;;4.55;2.20;;;;;;;13.74;83.79;100341.84;4999801;28;20530;-77
2022/11/08 15:03:53;;;;;;;10.10;2.40;;;;;;;13.70;84.70;100330.59;4992696;28;20039;-77
2022/11/08 15:06:19;;;;;;;8.25;2.33;;;;;;;13.69;84.50;100328.22;4996567;28;20389;-76
2022/11/08 15:08:54;;;;;;;7.95;2.53;;;;;;;13.70;85.71;100346.69;5004797;28;20556;-77
2022/11/08 15:11:30;;;;;;;4.78;2.35;;;;;;;13.68;84.60;100343.47;4997655;28;20084;-77
2022/11/08 15:14:01;;;;;;;5.10;1.92;;;;;;;13.61;84.96;100342.31;4995093;28;20041;-77
2022/11/08 15:16:40;;;;;;;7.03;2.40;;;;;;;13.57;84.87;100344.34;4998272;28;20476;-77
2022/11/08 15:19:27;;;;;;;7.07;2.95;;;;;;;13.61;84.35;100338.72;4989219;28;20022;-76
2022/11/08 15:21:52;;;;;;;6.32;2.65;;;;;;;13.57;84.59;100335.91;4999151;28;20117;-77
2022/11/08 15:24:35;;;;;;;4.68;2.30;;;;;;;13.51;86.62;100329.13;4999496;28;20180;-76
2022/11/08 15:27:23;;;;;;;8.05;2.50;;;;;;;13.55;84.17;100329.91;4997380;28;20096;-77
2022/11/08 15:30:08;;;;;;;5.07;2.97;;;;;;;13.57;84.37;100340.75;4982857;28;20461;-77
2022/11/08 15:32:38;;;;;;;5.28;2.17;;;;;;;13.57;84.15;100341.53;4983404;28;20080;-77
2022/11/08 15:35:06;;;;;;;6.47;2.20;;;;;;;13.61;83.49;100322.63;4998452;28;20034;-76
2022/11/08 15:37:34;;;;;;;5.72;2.45;;;;;;;13.67;83.29;100325.03;4982729;28;20544;-76
2022/11/08 15:40:02;;;;;;;3.25;2.05;;;;;;;13.53;84.73;100329.50;4982632;28;20607;-77
2022/11/08 15:42:28;;;;;;;4.78;2.53;;;;;;;13.53;86.41;100332.31;4995633;28;20033;-77
2022/11/08 15:45:03;;;;;;;4.20;2.50;;;;;;;13.48;86.11;100329.97;4996096;28;20034;-77
2022/11/08 15:47:42;;;;;;;12.30;2.38;;;;;;;13.43;85.30;100321.97;4987686;28;20495;-76
2022/11/08 15:50:17;;;;;;;6.68;2.53;;;;;;;13.41;85.48;100332.81;4996713;28;20045;-77
2022/11/08 15:52:44;;;;;;;4.32;2.22;;;;;;;13.38;86.15;100331.63;4994686;28;20045;-77
2022/11/08 15:55:24;;;;;;;5.72;2.28;;;;;;;13.35;86.08;100329.63;4998712;28;20033;-76
2022/11/08 15:57:49;;;;;;;6.90;2.22;;;;;;;13.37;85.71;100321.59;5000751;28;20116;-77
2022/11/08 16:00:23;;;;;;;6.20;2.10;;;;;;;13.39;85.93;100332.44;4986958;28;20463;-77
2022/11/08 16:02:49;;;;;;;5.72;2.47;;;;;;;13.32;87.02;100327.63;5005036;28;20400;-77
2022/11/08 16:05:23;;;;;;;6.15;2.40;;;;;;;13.32;86.39;100321.22;5004759;28;20030;-77
2022/11/08 16:07:49;;;;;;;6.05;2.60;;;;;;;13.30;86.45;100324.47;4999890;28;20037;-77
2022/11/08 16:10:23;;;;;;;8.05;2.55;;;;;;;13.30;86.98;100332.06;4996980;28;20378;-76
2022/11/08 16:12:49;;;;;;;5.82;2.97;;;;;;;13.23;87.33;100322.44;4997875;28;20042;-77
2022/11/08 16:15:20;;;;;;;4.82;2.38;;;;;;;13.23;87.79;100324.44;4989755;28;20076;-77
2022/11/08 16:17:47;;;;;;;5.00;2.67;;;;;;;13.25;87.45;100327.66;5000499;28;20152;-77
2022/11/08 16:20:29;;;;;;;4.85;2.40;;;;;;;13.21;88.05;100324.06;4994093;28;20168;-77
2022/11/08 16:22:58;;;;;;;;;;;;;;;13.14;88.19;100310.84;5001759;28;20091;-76
2022/11/08 16:25:25;;;;;;;12.95;2.00;;;;;;;13.23;88.96;100304.78;4995792;28;19972;-76
2022/11/08 16:27:59;;;;;;;8.23;2.72;;;;;;;13.26;87.41;100311.59;4992185;28;20021;-77
2022/11/08 16:30:26;;;;;;;6.45;2.67;;;;;;;13.26;87.30;100305.97;4985075;28;20445;-76
2022/11/08 16:32:54;;;;;;;7.97;2.40;;;;;;;13.40;92.74;100311.53;4988466;28;20022;-77
2022/11/08 16:35:20;;;;;;;4.70;2.72;;;;;;;13.31;87.93;100308.38;5006611;28;20026;-77
2022/11/08 16:37:46;;;;;;;6.78;2.60;;;;;;;13.20;88.46;100306.41;5001156;28;20498;-77
2022/11/08 16:40:13;;;;;;;10.43;3.60;;;;;;;13.19;88.70;100304.78;5002066;28;20033;-76
2022/11/08 16:42:38;;;;;;;19.88;9.40;;;;;;;13.16;88.99;100308.44;4999218;28;20133;-77
2022/11/08 16:45:04;;;;;;;15.18;8.77;;;;;;;13.06;89.52;100300.06;4993241;28;20025;-78
2022/11/08 16:47:31;;;;;;;17.55;10.65;;;;;;;13.21;91.34;100299.56;5002468;28;20385;-77
2022/11/08 16:49:56;;;;;;;18.45;7.00;;;;;;;13.14;89.21;100301.63;4986888;28;20181;-76
2022/11/08 16:52:21;;;;;;;12.43;5.45;;;;;;;13.07;89.72;100294.03;4999640;28;20120;-77
2022/11/08 16:54:47;;;;;;;12.75;5.35;;;;;;;13.02;90.10;100298.06;4995464;28;20509;-77
2022/11/08 16:57:12;;;;;;;8.00;4.63;;;;;;;12.99;90.41;100298.88;4994549;28;20481;-76
2022/11/08 16:59:37;;;;;;;8.55;3.05;;;;;;;13.05;90.26;100293.66;4979358;28;20537;-76
2022/11/08 17:02:03;;;;;;;15.10;6.78;;;;;;;13.03;90.03;100304.50;4990268;28;20030;-76
2022/11/08 17:04:28;;;;;;;10.52;5.28;;;;;;;13.11;90.24;100306.06;4993711;28;20028;-76
2022/11/08 17:06:53;;;;;;;14.57;6.38;;;;;;;13.04;90.47;100311.69;4992414;28;20045;-76
2022/11/08 17:09:19;;;;;;;12.70;5.30;;;;;;;13.03;90.41;100301.69;4993756;28;20042;-76
2022/11/08 17:11:44;;;;;;;9.25;4.65;;;;;;;13.03;90.02;100293.25;4994544;28;20041;-76
2022/11/08 17:14:11;;;;;;;10.10;4.72;;;;;;;13.04;90.23;100300.47;5011098;28;20034;-77
2022/11/08 17:16:36;;;;;;;7.80;4.13;;;;;;;13.05;90.40;100306.88;5007397;28;20033;-76
2022/11/08 17:19:03;;;;;;;9.60;4.85;;;;;;;13.03;90.31;100293.25;4974699;28;20033;-76
2022/11/08 17:21:28;;;;;;;17.35;15.80;;;;;;;13.00;90.85;100303.28;4999267;28;20034;-76
2022/11/08 17:23:54;;;;;;;8.05;5.47;;;;;;;13.01;90.78;100312.53;5011584;28;20034;-76
2022/11/08 17:26:20;;;;;;;13.25;7.40;;;;;;;12.98;90.88;100307.72;4994771;28;20033;-76
2022/11/08 17:28:45;;;;;;;8.95;4.82;;;;;;;12.98;90.98;100302.09;4986885;28;20034;-76
2022/11/08 17:31:17;;;;;;;13.80;5.35;;;;;;;12.97;91.51;100323.78;4984911;28;20030;-76
2022/11/08 17:33:43;;;;;;;9.05;4.75;;;;;;;12.98;91.38;100318.94;5004133;28;20037;-76
2022/11/08 17:36:11;;;;;;;11.48;6.38;;;;;;;13.01;91.48;100309.72;5000674;28;20026;-76
2022/11/08 17:38:38;;;;;;;10.20;4.47;;;;;;;13.07;91.40;100324.13;4995430;28;20021;-75
2022/11/08 17:41:06;;;;;;;11.55;3.58;;;;;;;12.99;91.77;100323.38;4995207;28;20026;-75
2022/11/08 17:43:33;;;;;;;7.68;3.58;;;;;;;13.01;91.62;100323.78;4980900;28;20429;-77
2022/11/08 17:45:59;;;;;;;5.38;3.38;;;;;;;12.97;92.11;100328.59;4999915;28;20738;-76
2022/11/08 17:48:25;;;;;;;7.22;3.03;;;;;;;12.99;92.07;100326.97;4993226;28;20034;-76
2022/11/08 17:50:51;;;;;;;13.80;9.00;;;;;;;12.96;92.14;100324.97;4992447;28;20043;-78